sensor_id;sensor_type;location;lat;lon;timestamp;pressure;altitude;pressure_sealevel;temperature;humidity
71778;BME280;59609;52.430;4.668;2023-05-10T00:01:39;100827.16;;;12.80;100.00
71778;BME280;59609;52.430;4.668;2023-05-10T00:04:05;100822.81;;;12.78;100.00
71778;BME280;59609;52.430;4.668;2023-05-10T00:06:30;100827.31;;;12.79;100.00
71778;BME280;59609;52.430;4.668;2023-05-10T00:08:56;100829.91;;;12.80;100.00
71778;BME280;59609;52.430;4.668;2023-05-10T00:11:22;100830.91;;;12.87;100.00
71778;BME280;59609;52.430;4.668;2023-05-10T00:13:47;100827.06;;;12.88;100.00
71778;BME280;59609;52.430;4.668;2023-05-10T00:16:13;100818.66;;;12.82;100.00
71778;BME280;59609;52.430;4.668;2023-05-10T00:18:39;100827.66;;;12.84;100.00
71778;BME280;59609;52.430;4.668;2023-05-10T00:21:04;100829.53;;;12.83;100.00
71778;BME280;59609;52.430;4.668;2023-05-10T00:23:30;100831.94;;;12.86;100.00
71778;BME280;59609;52.430;4.668;2023-05-10T00:25:56;100829.69;;;12.90;100.00
71778;BME280;59609;52.430;4.668;2023-05-10T00:28:21;100821.53;;;12.88;100.00
71778;BME280;59609;52.430;4.668;2023-05-10T00:30:47;100823.66;;;12.86;100.00
71778;BME280;59609;52.430;4.668;2023-05-10T00:33:12;100818.13;;;12.86;100.00
71778;BME280;59609;52.430;4.668;2023-05-10T00:35:37;100813.75;;;12.92;100.00
71778;BME280;59609;52.430;4.668;2023-05-10T00:38:03;100813.09;;;12.90;100.00
71778;BME280;59609;52.430;4.668;2023-05-10T00:40:29;100811.56;;;12.87;100.00
71778;BME280;59609;52.430;4.668;2023-05-10T00:42:56;100807.78;;;12.80;100.00
71778;BME280;59609;52.430;4.668;2023-05-10T00:45:21;100818.84;;;12.80;100.00
71778;BME280;59609;52.430;4.668;2023-05-10T00:47:47;100814.66;;;12.84;100.00
71778;BME280;59609;52.430;4.668;2023-05-10T00:50:13;100817.09;;;12.87;100.00
71778;BME280;59609;52.430;4.668;2023-05-10T00:52:39;100824.28;;;12.97;100.00
71778;BME280;59609;52.430;4.668;2023-05-10T00:55:06;100816.16;;;12.95;100.00
71778;BME280;59609;52.430;4.668;2023-05-10T00:57:31;100820.31;;;12.91;100.00
71778;BME280;59609;52.430;4.668;2023-05-10T00:59:57;100829.97;;;12.95;100.00
71778;BME280;59609;52.430;4.668;2023-05-10T01:02:23;100829.09;;;12.95;100.00
71778;BME280;59609;52.430;4.668;2023-05-10T01:04:49;100826.13;;;13.04;100.00
71778;BME280;59609;52.430;4.668;2023-05-10T01:07:14;100828.69;;;13.06;100.00
71778;BME280;59609;52.430;4.668;2023-05-10T01:09:40;100831.47;;;13.06;100.00
71778;BME280;59609;52.430;4.668;2023-05-10T01:12:06;100832.13;;;13.08;100.00
71778;BME280;59609;52.430;4.668;2023-05-10T01:14:32;100836.13;;;13.13;100.00
71778;BME280;59609;52.430;4.668;2023-05-10T01:16:59;100823.16;;;13.06;100.00
71778;BME280;59609;52.430;4.668;2023-05-10T01:19:27;100839.91;;;13.12;100.00
71778;BME280;59609;52.430;4.668;2023-05-10T01:22:12;100836.78;;;13.15;100.00
71778;BME280;59609;52.430;4.668;2023-05-10T01:33:30;100841.50;;;13.07;100.00
71778;BME280;59609;52.430;4.668;2023-05-10T01:36:35;100843.94;;;13.10;100.00
71778;BME280;59609;52.430;4.668;2023-05-10T01:39:20;100841.66;;;13.13;100.00
71778;BME280;59609;52.430;4.668;2023-05-10T01:47:19;100846.91;;;13.00;100.00
71778;BME280;59609;52.430;4.668;2023-05-10T01:49:50;100837.91;;;12.98;100.00
71778;BME280;59609;52.430;4.668;2023-05-10T01:52:19;100837.41;;;12.95;100.00
71778;BME280;59609;52.430;4.668;2023-05-10T01:54:55;100848.09;;;12.98;100.00
71778;BME280;59609;52.430;4.668;2023-05-10T01:57:24;100834.84;;;12.93;100.00
71778;BME280;59609;52.430;4.668;2023-05-10T01:59:51;100848.84;;;12.91;100.00
71778;BME280;59609;52.430;4.668;2023-05-10T02:02:21;100850.56;;;12.93;100.00
71778;BME280;59609;52.430;4.668;2023-05-10T02:04:50;100855.72;;;12.96;100.00
71778;BME280;59609;52.430;4.668;2023-05-10T02:07:16;100866.28;;;12.92;100.00
71778;BME280;59609;52.430;4.668;2023-05-10T02:09:44;100860.63;;;12.85;100.00
71778;BME280;59609;52.430;4.668;2023-05-10T02:12:13;100860.22;;;12.66;100.00
71778;BME280;59609;52.430;4.668;2023-05-10T02:14:41;100866.91;;;12.71;100.00
71778;BME280;59609;52.430;4.668;2023-05-10T02:17:07;100863.47;;;12.69;100.00
71778;BME280;59609;52.430;4.668;2023-05-10T02:19:34;100872.50;;;12.63;100.00
71778;BME280;59609;52.430;4.668;2023-05-10T02:22:01;100874.41;;;12.63;100.00
71778;BME280;59609;52.430;4.668;2023-05-10T02:24:28;100883.25;;;12.50;100.00
71778;BME280;59609;52.430;4.668;2023-05-10T02:26:55;100891.00;;;12.55;100.00
71778;BME280;59609;52.430;4.668;2023-05-10T02:29:23;100893.63;;;12.48;100.00
71778;BME280;59609;52.430;4.668;2023-05-10T02:31:51;100895.72;;;12.38;100.00
71778;BME280;59609;52.430;4.668;2023-05-10T02:34:18;100904.00;;;12.38;100.00
71778;BME280;59609;52.430;4.668;2023-05-10T02:36:44;100900.56;;;12.44;100.00
71778;BME280;59609;52.430;4.668;2023-05-10T02:39:11;100901.44;;;12.36;100.00
71778;BME280;59609;52.430;4.668;2023-05-10T02:41:40;100900.59;;;12.28;100.00
71778;BME280;59609;52.430;4.668;2023-05-10T02:44:07;100898.53;;;12.22;100.00
71778;BME280;59609;52.430;4.668;2023-05-10T02:46:34;100899.91;;;12.34;100.00
71778;BME280;59609;52.430;4.668;2023-05-10T02:49:00;100909.75;;;12.28;100.00
71778;BME280;59609;52.430;4.668;2023-05-10T02:51:29;100898.00;;;12.26;100.00
71778;BME280;59609;52.430;4.668;2023-05-10T02:53:57;100907.84;;;12.29;100.00
71778;BME280;59609;52.430;4.668;2023-05-10T02:56:29;100904.41;;;12.27;100.00
71778;BME280;59609;52.430;4.668;2023-05-10T02:58:56;100903.00;;;12.31;100.00
71778;BME280;59609;52.430;4.668;2023-05-10T03:01:22;100903.69;;;12.33;100.00
71778;BME280;59609;52.430;4.668;2023-05-10T03:03:47;100900.44;;;12.21;100.00
71778;BME280;59609;52.430;4.668;2023-05-10T03:06:13;100907.34;;;12.25;100.00
71778;BME280;59609;52.430;4.668;2023-05-10T03:08:38;100911.81;;;12.26;100.00
71778;BME280;59609;52.430;4.668;2023-05-10T03:14:32;100903.75;;;12.17;100.00
71778;BME280;59609;52.430;4.668;2023-05-10T03:17:15;100909.63;;;12.14;100.00
71778;BME280;59609;52.430;4.668;2023-05-10T03:19:53;100905.09;;;12.21;100.00
71778;BME280;59609;52.430;4.668;2023-05-10T03:22:32;100903.38;;;12.20;100.00
71778;BME280;59609;52.430;4.668;2023-05-10T03:25:00;100897.66;;;12.21;100.00
71778;BME280;59609;52.430;4.668;2023-05-10T03:27:31;100907.53;;;12.24;100.00
71778;BME280;59609;52.430;4.668;2023-05-10T03:29:57;100901.13;;;12.23;100.00
71778;BME280;59609;52.430;4.668;2023-05-10T03:32:23;100911.69;;;12.12;100.00
71778;BME280;59609;52.430;4.668;2023-05-10T03:34:48;100911.31;;;12.15;100.00
71778;BME280;59609;52.430;4.668;2023-05-10T03:37:14;100905.28;;;12.11;100.00
71778;BME280;59609;52.430;4.668;2023-05-10T03:39:39;100908.59;;;12.07;100.00
71778;BME280;59609;52.430;4.668;2023-05-10T03:42:05;100909.63;;;12.14;100.00
71778;BME280;59609;52.430;4.668;2023-05-10T03:44:30;100908.91;;;12.12;100.00
71778;BME280;59609;52.430;4.668;2023-05-10T03:46:58;100920.66;;;12.06;100.00
71778;BME280;59609;52.430;4.668;2023-05-10T03:49:23;100910.28;;;12.08;100.00
71778;BME280;59609;52.430;4.668;2023-05-10T03:51:49;100922.72;;;12.20;100.00
71778;BME280;59609;52.430;4.668;2023-05-10T03:54:14;100907.69;;;12.14;100.00
71778;BME280;59609;52.430;4.668;2023-05-10T03:56:40;100915.31;;;12.04;100.00
71778;BME280;59609;52.430;4.668;2023-05-10T03:59:05;100920.00;;;12.04;100.00
71778;BME280;59609;52.430;4.668;2023-05-10T04:01:33;100922.38;;;12.15;100.00
71778;BME280;59609;52.430;4.668;2023-05-10T04:04:00;100919.81;;;12.13;100.00
71778;BME280;59609;52.430;4.668;2023-05-10T04:06:25;100923.94;;;12.17;100.00
71778;BME280;59609;52.430;4.668;2023-05-10T04:08:50;100916.50;;;12.18;100.00
71778;BME280;59609;52.430;4.668;2023-05-10T04:11:16;100923.59;;;12.20;100.00
71778;BME280;59609;52.430;4.668;2023-05-10T04:13:41;100922.22;;;12.08;100.00
71778;BME280;59609;52.430;4.668;2023-05-10T04:16:08;100918.75;;;12.22;100.00
71778;BME280;59609;52.430;4.668;2023-05-10T04:18:34;100919.97;;;12.12;100.00
71778;BME280;59609;52.430;4.668;2023-05-10T04:20:59;100920.47;;;12.15;100.00
71778;BME280;59609;52.430;4.668;2023-05-10T04:23:25;100922.69;;;12.28;100.00
71778;BME280;59609;52.430;4.668;2023-05-10T04:25:50;100916.31;;;12.19;100.00
71778;BME280;59609;52.430;4.668;2023-05-10T04:28:15;100925.44;;;12.28;100.00
71778;BME280;59609;52.430;4.668;2023-05-10T04:30:41;100931.16;;;12.18;100.00
71778;BME280;59609;52.430;4.668;2023-05-10T04:33:06;100930.13;;;12.19;100.00
71778;BME280;59609;52.430;4.668;2023-05-10T04:35:31;100931.00;;;12.12;100.00
71778;BME280;59609;52.430;4.668;2023-05-10T04:37:57;100933.56;;;12.21;100.00
71778;BME280;59609;52.430;4.668;2023-05-10T04:40:22;100931.16;;;12.26;100.00
71778;BME280;59609;52.430;4.668;2023-05-10T04:42:48;100924.41;;;12.21;100.00
71778;BME280;59609;52.430;4.668;2023-05-10T04:45:13;100938.75;;;12.24;100.00
71778;BME280;59609;52.430;4.668;2023-05-10T04:47:41;100933.56;;;12.29;100.00
71778;BME280;59609;52.430;4.668;2023-05-10T04:50:07;100943.41;;;12.40;100.00
71778;BME280;59609;52.430;4.668;2023-05-10T04:52:32;100942.34;;;12.41;100.00
71778;BME280;59609;52.430;4.668;2023-05-10T04:54:58;100943.03;;;12.43;100.00
71778;BME280;59609;52.430;4.668;2023-05-10T04:57:23;100945.09;;;12.41;100.00
71778;BME280;59609;52.430;4.668;2023-05-10T04:59:48;100947.34;;;12.46;100.00
71778;BME280;59609;52.430;4.668;2023-05-10T05:02:14;100944.44;;;12.39;100.00
71778;BME280;59609;52.430;4.668;2023-05-10T05:04:39;100947.00;;;12.49;100.00
71778;BME280;59609;52.430;4.668;2023-05-10T05:07:05;100946.47;;;12.53;100.00
71778;BME280;59609;52.430;4.668;2023-05-10T05:09:30;100951.13;;;12.53;100.00
71778;BME280;59609;52.430;4.668;2023-05-10T05:11:57;100953.72;;;12.54;100.00
71778;BME280;59609;52.430;4.668;2023-05-10T05:14:22;100960.59;;;12.58;100.00
71778;BME280;59609;52.430;4.668;2023-05-10T05:16:50;100960.25;;;12.61;100.00
71778;BME280;59609;52.430;4.668;2023-05-10T05:19:15;100961.97;;;12.62;100.00
71778;BME280;59609;52.430;4.668;2023-05-10T05:21:41;100956.09;;;12.65;100.00
71778;BME280;59609;52.430;4.668;2023-05-10T05:24:06;100963.88;;;12.70;100.00
71778;BME280;59609;52.430;4.668;2023-05-10T05:26:32;100969.91;;;12.73;100.00
71778;BME280;59609;52.430;4.668;2023-05-10T05:28:58;100969.84;;;12.81;100.00
71778;BME280;59609;52.430;4.668;2023-05-10T05:31:23;100977.47;;;12.79;100.00
71778;BME280;59609;52.430;4.668;2023-05-10T05:33:49;100975.75;;;12.78;100.00
71778;BME280;59609;52.430;4.668;2023-05-10T05:36:14;100981.13;;;12.80;100.00
71778;BME280;59609;52.430;4.668;2023-05-10T05:38:39;100982.13;;;12.87;100.00
71778;BME280;59609;52.430;4.668;2023-05-10T05:41:05;100986.59;;;12.88;100.00
71778;BME280;59609;52.430;4.668;2023-05-10T05:43:30;100981.63;;;12.83;100.00
71778;BME280;59609;52.430;4.668;2023-05-10T05:45:55;100987.47;;;12.88;100.00
71778;BME280;59609;52.430;4.668;2023-05-10T05:48:23;100991.28;;;12.87;100.00
71778;BME280;59609;52.430;4.668;2023-05-10T05:50:48;100998.00;;;12.93;100.00
71778;BME280;59609;52.430;4.668;2023-05-10T05:53:13;100997.13;;;13.01;100.00
71778;BME280;59609;52.430;4.668;2023-05-10T05:55:39;100991.59;;;12.93;100.00
71778;BME280;59609;52.430;4.668;2023-05-10T05:58:04;100989.22;;;12.81;100.00
71778;BME280;59609;52.430;4.668;2023-05-10T06:00:29;101000.56;;;12.95;100.00
71778;BME280;59609;52.430;4.668;2023-05-10T06:02:55;100998.53;;;12.88;100.00
71778;BME280;59609;52.430;4.668;2023-05-10T06:05:20;100989.72;;;12.93;100.00
71778;BME280;59609;52.430;4.668;2023-05-10T06:07:46;100995.75;;;12.97;100.00
71778;BME280;59609;52.430;4.668;2023-05-10T06:10:11;101002.97;;;13.06;100.00
71778;BME280;59609;52.430;4.668;2023-05-10T06:12:36;101000.72;;;13.09;100.00
71778;BME280;59609;52.430;4.668;2023-05-10T06:15:03;101002.97;;;13.14;100.00
71778;BME280;59609;52.430;4.668;2023-05-10T06:17:28;101006.78;;;13.13;100.00
71778;BME280;59609;52.430;4.668;2023-05-10T06:19:54;101013.13;;;13.21;100.00
71778;BME280;59609;52.430;4.668;2023-05-10T06:22:20;101010.19;;;13.23;100.00
71778;BME280;59609;52.430;4.668;2023-05-10T06:24:47;101019.84;;;13.27;100.00
71778;BME280;59609;52.430;4.668;2023-05-10T06:27:13;101008.44;;;13.30;100.00
71778;BME280;59609;52.430;4.668;2023-05-10T06:29:38;101007.72;;;13.28;100.00
71778;BME280;59609;52.430;4.668;2023-05-10T06:32:04;101011.84;;;13.32;100.00
71778;BME280;59609;52.430;4.668;2023-05-10T06:34:29;101012.28;;;13.52;100.00
71778;BME280;59609;52.430;4.668;2023-05-10T06:36:55;101015.94;;;13.75;100.00
71778;BME280;59609;52.430;4.668;2023-05-10T06:39:20;101018.84;;;14.04;100.00
71778;BME280;59609;52.430;4.668;2023-05-10T06:41:45;101027.03;;;13.98;100.00
71778;BME280;59609;52.430;4.668;2023-05-10T06:44:11;101031.09;;;14.10;100.00
71778;BME280;59609;52.430;4.668;2023-05-10T06:46:36;101029.22;;;14.25;100.00
71778;BME280;59609;52.430;4.668;2023-05-10T06:49:02;101032.88;;;14.03;100.00
71778;BME280;59609;52.430;4.668;2023-05-10T06:51:27;101033.03;;;14.01;100.00
71778;BME280;59609;52.430;4.668;2023-05-10T06:53:52;101033.25;;;14.00;100.00
71778;BME280;59609;52.430;4.668;2023-05-10T06:56:18;101041.47;;;14.08;100.00
71778;BME280;59609;52.430;4.668;2023-05-10T06:58:43;101032.47;;;14.28;100.00
71778;BME280;59609;52.430;4.668;2023-05-10T07:01:09;101032.75;;;14.19;100.00
71778;BME280;59609;52.430;4.668;2023-05-10T07:03:34;101043.03;;;14.33;100.00
71778;BME280;59609;52.430;4.668;2023-05-10T07:06:03;101032.47;;;14.51;100.00
71778;BME280;59609;52.430;4.668;2023-05-10T07:08:33;101045.41;;;14.59;100.00
71778;BME280;59609;52.430;4.668;2023-05-10T07:16:48;101054.19;;;15.00;100.00
71778;BME280;59609;52.430;4.668;2023-05-10T17:48:21;101358.38;;;15.46;92.13
71778;BME280;59609;52.430;4.668;2023-05-10T17:50:49;101373.84;;;15.86;90.96
